Virtual LH

Virtual LH. There's no better way to fly
Since 2013.



AIRPORT MAP

METAR AND TAF INFORMATION

METAR FOR EDDG
ADDS - METARS form results

(0054 UTC 23 July 2019)
Data provider http://aviationweather.gov/metar/data/
 
METAR text: EDDG 230050Z VRB01KT CAVOK 16/15 Q1022 NOSIG
Conditions at: EDDG (MUENSTER/OSNABRU, DE) observed 0050 UTC 23 July 2019
Temperature: 16.0°C (61°F)
Dewpoint: 15.0°C (59°F) [RH = 94%]
Pressure (altimeter): 30.18 inches Hg (1022.0 mb)
Winds: variable direction winds at 1 MPH (1 knots; 0.5 m/s)
Visibility: 6 or more miles (10+ km)
Ceiling: ceiling and visibility are OK
Clouds: unknown
Weather: no significant weather observed at this time

METAR text: EDDG 230020Z VRB01KT CAVOK 17/15 Q1022 NOSIG
Conditions at: EDDG (MUENSTER/OSNABRU, DE) observed 0020 UTC 23 July 2019
Temperature: 17.0°C (63°F)
Dewpoint: 15.0°C (59°F) [RH = 88%]
Pressure (altimeter): 30.18 inches Hg (1022.0 mb)
Winds: variable direction winds at 1 MPH (1 knots; 0.5 m/s)
Visibility: 6 or more miles (10+ km)
Ceiling: ceiling and visibility are OK
Clouds: unknown
Weather: no significant weather observed at this time

Forecast for: EDDG (MUENSTER/OSNABRU, DE)
Text: TAF EDDG 222300Z 2300/2324 VRB03KT CAVOK
Forecast period: 0000 UTC 23 July 2019 to 0000 UTC 24 July 2019
Forecast type: FROM: standard forecast or significant change
Winds: variable direction winds at 3 MPH (3 knots; 1.5 m/s)
Visibility: 6 or more miles 10+ km)
Ceiling: unknown
Clouds: missing
Weather: NSW  (no significant weather)

RUNWAY INFORMATION

Runway 07 Runway length 7119 ft Runway width 148 ft
Runway elevation 156 ft Runway displaced threshold 0 ft Runway heading 71
Runway 25 Runway length 7119 ft Runway width 148 ft
Runway elevation 159 ft Runway displaced threshold 656 ft Runway heading 251

AIRPORT FREQUENCIES

Type AFIS Name LANGEN INF Frequency 123.525 MHZ
Type ATIS Name ATIS Frequency 127.175 MHZ
Type GND Name GND Frequency 121.875 MHZ
Type RDR Name LANGEN RAD Frequency 129.3 MHZ
Type TWR Name TWR Frequency 129.8 MHZ

AIRPORT NEAR NAVIGATION AIDS

Type DME Name Munster Frequency 114050 KHZ
Type NDB Name Greven Frequency 305 KHZ
Type NDB Name Munster Frequency 371 KHZ